createdAt,value
2023-12-29T00:08:18.533Z,27.40
2023-12-29T00:16:42.970Z,24.50
2023-12-29T00:25:10.268Z,21.10
2023-12-29T00:33:34.996Z,25.20
2023-12-29T00:42:00.073Z,23.90
2023-12-29T00:50:25.518Z,22.10
2023-12-29T00:58:49.351Z,21.70
2023-12-29T01:07:12.870Z,25.00
2023-12-29T01:15:39.352Z,19.00
2023-12-29T01:24:05.275Z,18.30
2023-12-29T01:32:29.844Z,22.20
2023-12-29T01:40:53.853Z,21.40
2023-12-29T01:49:21.535Z,24.70
2023-12-29T01:57:46.827Z,24.00
2023-12-29T02:06:14.106Z,21.60
2023-12-29T02:14:38.716Z,24.70
2023-12-29T02:23:04.507Z,22.10
2023-12-29T02:31:32.088Z,18.70
2023-12-29T02:40:00.309Z,21.90
2023-12-29T02:48:26.670Z,22.10
2023-12-29T02:56:50.703Z,17.30
2023-12-29T03:05:15.504Z,23.10
2023-12-29T03:13:40.173Z,23.20
2023-12-29T03:22:07.144Z,22.60
2023-12-29T03:30:31.424Z,19.30
2023-12-29T03:38:58.341Z,21.20
2023-12-29T03:47:22.254Z,25.30
2023-12-29T03:55:47.093Z,21.90
2023-12-29T04:04:12.141Z,21.60
2023-12-29T04:12:38.332Z,24.80
2023-12-29T04:21:03.575Z,23.10
2023-12-29T04:29:28.780Z,23.70
2023-12-29T04:37:55.253Z,23.30
2023-12-29T04:46:22.693Z,27.90
2023-12-29T04:54:49.626Z,21.30
2023-12-29T05:03:14.269Z,23.60
2023-12-29T05:11:38.608Z,25.30
2023-12-29T05:20:02.487Z,26.90
2023-12-29T05:28:28.400Z,29.40
2023-12-29T05:36:54.426Z,21.80
2023-12-29T05:45:19.086Z,24.90
2023-12-29T05:53:43.863Z,29.10
2023-12-29T06:02:11.380Z,23.10
2023-12-29T06:10:37.538Z,27.90
2023-12-29T06:19:01.458Z,23.20
2023-12-29T06:27:25.893Z,28.10
2023-12-29T06:35:50.029Z,26.20
2023-12-29T06:44:15.789Z,28.20
2023-12-29T06:52:40.078Z,26.00
2023-12-29T07:01:06.088Z,28.30
2023-12-29T07:09:32.433Z,27.90
2023-12-29T07:17:56.128Z,24.20
2023-12-29T07:26:20.168Z,26.50
2023-12-29T07:34:46.324Z,24.90
2023-12-29T07:43:10.073Z,43.60
2023-12-29T07:51:40.040Z,21.70
2023-12-29T08:00:07.511Z,25.80
2023-12-29T08:08:36.642Z,22.30
2023-12-29T08:17:01.520Z,23.10
2023-12-29T08:25:25.658Z,20.60
2023-12-29T08:33:49.931Z,16.60
2023-12-29T08:42:17.758Z,21.40
2023-12-29T08:50:44.255Z,19.60
2023-12-29T08:59:09.619Z,38.40
2023-12-29T09:07:34.950Z,773.20
2023-12-29T09:15:59.789Z,1283.90
2023-12-29T09:24:24.172Z,970.10
2023-12-29T09:32:48.864Z,209.40
2023-12-29T09:41:16.493Z,225.50
2023-12-29T09:49:43.684Z,98.70
2023-12-29T09:58:10.188Z,66.00
2023-12-29T10:06:43.058Z,60.60
2023-12-29T10:15:17.347Z,43.90
2023-12-29T10:23:56.127Z,65.90
2023-12-29T10:32:19.736Z,50.80
2023-12-29T10:40:45.172Z,19.50
2023-12-29T10:49:12.368Z,21.80
2023-12-29T10:57:36.967Z,39.50
2023-12-29T11:06:03.461Z,23.10
2023-12-29T11:14:28.861Z,25.10
2023-12-29T11:22:53.191Z,14.80
2023-12-29T11:31:20.232Z,21.40
2023-12-29T11:40:45.750Z,31.40
2023-12-29T11:49:11.858Z,15.70
2023-12-29T11:57:38.248Z,20.20
2023-12-29T12:06:05.504Z,13.90
2023-12-29T12:15:05.473Z,10.90
2023-12-29T12:23:34.907Z,6.70
2023-12-29T12:31:59.312Z,14.00
2023-12-29T12:40:28.996Z,8.90
2023-12-29T12:48:53.714Z,12.60
2023-12-29T12:57:22.020Z,7.40
2023-12-29T13:05:46.255Z,9.10
2023-12-29T13:14:09.715Z,6.70
2023-12-29T13:22:33.439Z,7.90
2023-12-29T13:30:58.581Z,12.80
2023-12-29T13:39:38.289Z,64.00
2023-12-29T13:48:04.501Z,14.10
2023-12-29T13:56:28.876Z,8.10
2023-12-29T14:05:07.237Z,6.70
2023-12-29T14:13:30.864Z,8.00
2023-12-29T14:21:57.134Z,12.20
2023-12-29T14:30:21.776Z,10.40
2023-12-29T14:38:46.449Z,9.00
2023-12-29T14:47:11.469Z,8.30
2023-12-29T14:55:38.643Z,8.60
2023-12-29T15:04:02.587Z,6.80
2023-12-29T15:12:28.473Z,14.20
2023-12-29T15:20:53.114Z,9.50
2023-12-29T15:29:17.118Z,6.50
2023-12-29T15:37:42.153Z,9.30
2023-12-29T15:46:23.709Z,10.30
2023-12-29T15:54:47.396Z,14.10
2023-12-29T16:03:33.318Z,188.30
2023-12-29T16:11:57.778Z,10.00
2023-12-29T16:20:30.574Z,8.70
2023-12-29T16:28:54.152Z,11.70
2023-12-29T16:37:21.369Z,8.40
2023-12-29T16:45:46.702Z,14.20
2023-12-29T16:54:11.524Z,6.70
2023-12-29T17:02:35.830Z,9.30
2023-12-29T17:10:59.802Z,8.30
2023-12-29T17:19:27.443Z,339.40
2023-12-29T17:27:52.740Z,544.70
2023-12-29T17:36:19.547Z,228.10
2023-12-29T17:44:43.649Z,479.90
2023-12-29T17:53:07.588Z,259.50
2023-12-29T18:01:33.720Z,264.20
2023-12-29T18:09:58.320Z,183.00
2023-12-29T18:18:23.242Z,52.60
2023-12-29T18:26:47.517Z,69.70
2023-12-29T18:35:13.526Z,31.90
2023-12-29T18:43:38.508Z,48.80
2023-12-29T18:52:02.723Z,10.30
2023-12-29T19:00:26.625Z,20.10
2023-12-29T19:08:51.395Z,17.40
2023-12-29T19:17:16.112Z,12.40
2023-12-29T19:25:41.356Z,14.60
2023-12-29T19:34:07.874Z,14.20
2023-12-29T19:42:34.375Z,13.90
2023-12-29T19:50:58.632Z,17.20
2023-12-29T19:59:23.950Z,18.80
2023-12-29T20:07:49.022Z,16.20
2023-12-29T20:16:41.877Z,36.80
2023-12-29T20:25:06.517Z,29.00
2023-12-29T20:33:32.758Z,23.30
2023-12-29T20:41:56.593Z,27.00
2023-12-29T20:59:41.135Z,14.80
2023-12-29T21:08:26.549Z,14.40
2023-12-29T21:16:54.106Z,13.30
2023-12-29T21:25:17.859Z,17.00
2023-12-29T21:33:42.018Z,17.50
2023-12-29T21:42:07.222Z,14.10
2023-12-29T21:51:09.524Z,14.50
2023-12-29T21:59:33.982Z,10.60
2023-12-29T22:07:57.775Z,16.70
2023-12-29T22:16:23.825Z,12.70
2023-12-29T22:24:51.057Z,13.70
2023-12-29T22:33:15.644Z,11.60
2023-12-29T22:41:39.675Z,14.30
2023-12-29T22:50:05.528Z,10.00
2023-12-29T22:58:31.182Z,13.00
2023-12-29T23:06:54.844Z,10.50
2023-12-29T23:15:19.219Z,11.90
2023-12-29T23:23:44.734Z,10.10
2023-12-29T23:32:09.708Z,12.20
2023-12-29T23:40:34.885Z,12.50
2023-12-29T23:49:00.348Z,13.70
2023-12-29T23:57:25.015Z,9.60
